Time;durP1;ratioP1;P1;durP2;ratioP2;P2;SDS_P1;SDS_P2;PMS_P1;PMS_P2;Temp;Humidity;BMP_temperature;BMP_pressure;BME280_temperature;BME280_humidity;BME280_pressure;Samples;Min_cycle;Max_cycle;Signal;HPM_P1;HPM_P2
2022/12/25 00:01:53;;;;;;;4.53;2.47;;;24.50;46.90;;;;;;6087236;23;20077;-62
2022/12/25 00:04:19;;;;;;;4.28;2.33;;;24.40;46.90;;;;;;6086961;23;20018;-64
2022/12/25 00:06:45;;;;;;;4.80;2.70;;;24.40;47.60;;;;;;6087764;23;20102;-61
2022/12/25 00:09:10;;;;;;;9.35;2.95;;;24.40;46.90;;;;;;6088908;23;20371;-62
2022/12/25 00:11:36;;;;;;;5.00;2.58;;;24.30;46.80;;;;;;6085988;23;20034;-64
2022/12/25 00:14:02;;;;;;;5.35;2.70;;;24.30;46.90;;;;;;6062209;23;20136;-62
2022/12/25 00:16:28;;;;;;;4.28;2.60;;;24.30;46.90;;;;;;6088940;23;20095;-62
2022/12/25 00:18:57;;;;;;;6.03;3.00;;;24.20;46.80;;;;;;6088508;23;20018;-62
2022/12/25 00:21:24;;;;;;;5.50;2.90;;;24.20;46.90;;;;;;6087790;23;20022;-61
2022/12/25 00:23:54;;;;;;;4.13;2.33;;;24.10;46.80;;;;;;6086564;23;20026;-61
2022/12/25 00:26:20;;;;;;;3.35;2.55;;;24.10;46.80;;;;;;6086923;23;20019;-62
2022/12/25 00:28:46;;;;;;;3.47;2.45;;;24.00;46.80;;;;;;6085978;23;20010;-62
2022/12/25 00:31:14;;;;;;;4.40;2.65;;;24.00;46.90;;;;;;6085489;23;20490;-62
2022/12/25 00:33:43;;;;;;;5.68;2.08;;;24.00;46.90;;;;;;6088799;23;20014;-61
2022/12/25 00:36:10;;;;;;;4.45;2.80;;;23.90;46.80;;;;;;6088133;23;20018;-62
2022/12/25 00:38:38;;;;;;;4.63;2.40;;;23.90;46.80;;;;;;6088766;23;20038;-65
2022/12/25 00:41:08;;;;;;;3.88;2.53;;;23.80;46.90;;;;;;6088406;23;20014;-61
2022/12/25 00:43:35;;;;;;;3.92;2.50;;;23.80;46.90;;;;;;6088919;23;20015;-61
2022/12/25 00:46:03;;;;;;;5.47;2.42;;;23.80;47.00;;;;;;6088254;23;20025;-62
2022/12/25 00:48:29;;;;;;;4.47;2.75;;;23.70;46.90;;;;;;6086313;23;20011;-61
2022/12/25 00:51:07;;;;;;;4.75;2.65;;;23.70;47.30;;;;;;6088627;23;20014;-62
2022/12/25 00:53:33;;;;;;;7.45;2.70;;;23.60;46.90;;;;;;6086675;23;20025;-63
2022/12/25 00:56:02;;;;;;;4.72;2.13;;;23.60;47.00;;;;;;6086681;23;20011;-62
2022/12/25 00:58:29;;;;;;;3.80;2.25;;;23.60;47.00;;;;;;6086093;23;20017;-62
2022/12/25 01:00:56;;;;;;;2.88;2.30;;;23.50;47.00;;;;;;6087053;23;20073;-62
2022/12/25 01:03:23;;;;;;;4.80;2.35;;;23.50;47.00;;;;;;6086642;23;20085;-60
2022/12/25 01:06:03;;;;;;;3.80;2.38;;;23.50;47.00;;;;;;6088614;23;20475;-61
2022/12/25 01:08:31;;;;;;;4.22;2.55;;;23.40;47.00;;;;;;6086487;23;20473;-62
2022/12/25 01:11:03;;;;;;;5.93;2.50;;;23.40;47.10;;;;;;6088481;23;20018;-61
2022/12/25 01:13:29;;;;;;;3.80;2.53;;;23.40;47.10;;;;;;6085327;23;20089;-61
2022/12/25 01:15:55;;;;;;;4.20;2.28;;;23.30;47.10;;;;;;6086246;23;20062;-62
2022/12/25 01:18:22;;;;;;;4.35;2.25;;;23.30;47.20;;;;;;6086686;23;20390;-61
2022/12/25 01:20:48;;;;;;;3.78;2.70;;;23.20;47.20;;;;;;6088128;23;20010;-63
2022/12/25 01:23:14;;;;;;;3.20;2.28;;;23.20;47.10;;;;;;6084902;23;20019;-63
2022/12/25 01:25:40;;;;;;;5.50;2.38;;;23.20;47.10;;;;;;6086504;23;20029;-62
2022/12/25 01:28:06;;;;;;;4.22;2.33;;;23.20;47.20;;;;;;6085188;23;20018;-61
2022/12/25 01:30:31;;;;;;;3.08;2.08;;;23.20;47.20;;;;;;6087898;23;20010;-61
2022/12/25 01:32:57;;;;;;;3.47;2.50;;;23.10;47.20;;;;;;6085694;23;20014;-61
2022/12/25 01:35:23;;;;;;;4.13;2.35;;;23.10;47.20;;;;;;6087346;23;20026;-62
2022/12/25 01:37:50;;;;;;;4.68;2.60;;;23.00;47.20;;;;;;6085738;23;20398;-61
2022/12/25 01:40:16;;;;;;;4.25;2.38;;;23.00;47.30;;;;;;6084919;23;20014;-63
2022/12/25 01:42:42;;;;;;;4.07;2.30;;;23.00;47.20;;;;;;6083926;23;20018;-61
2022/12/25 01:45:26;;;;;;;6.00;2.33;;;23.00;47.30;;;;;;6087778;23;20058;-64
2022/12/25 01:47:52;;;;;;;2.97;2.10;;;23.00;47.30;;;;;;6087052;23;20066;-64
2022/12/25 01:50:22;;;;;;;3.35;2.10;;;22.90;47.40;;;;;;6088045;23;20018;-63
2022/12/25 01:52:49;;;;;;;3.88;2.30;;;22.90;47.30;;;;;;6087856;23;20079;-61
2022/12/25 01:55:15;;;;;;;4.30;2.10;;;22.90;47.40;;;;;;6088092;23;20367;-62
2022/12/25 01:57:42;;;;;;;3.33;2.00;;;22.80;47.40;;;;;;6087045;23;20018;-62
2022/12/25 02:00:09;;;;;;;2.90;2.13;;;22.80;47.40;;;;;;6086503;23;20054;-63
2022/12/25 02:02:37;;;;;;;3.03;1.80;;;22.80;47.40;;;;;;6087736;23;20344;-60
2022/12/25 02:05:28;;;;;;;4.60;2.40;;;22.80;47.50;;;;;;6086717;23;20023;-63
2022/12/25 02:07:53;;;;;;;;;;;22.80;47.40;;;;;;6085244;23;20018;-61
2022/12/25 02:10:19;;;;;;;3.75;1.80;;;22.70;47.30;;;;;;6085942;23;19940;-62
2022/12/25 02:12:46;;;;;;;3.60;2.15;;;22.60;47.60;;;;;;6086689;23;20018;-60
2022/12/25 02:15:18;;;;;;;3.63;2.03;;;22.60;47.60;;;;;;6088328;23;20375;-63
2022/12/25 02:17:59;;;;;;;3.15;1.88;;;22.60;47.60;;;;;;6085123;23;20742;-62
2022/12/25 02:20:49;;;;;;;5.10;2.20;;;22.60;47.60;;;;;;6088315;23;20078;-62
2022/12/25 02:23:42;;;;;;;3.58;2.30;;;22.60;47.50;;;;;;6087360;23;20046;-61
2022/12/25 02:26:35;;;;;;;2.97;1.75;;;22.60;47.50;;;;;;6087370;23;20495;-61
2022/12/25 02:29:38;;;;;;;2.45;1.70;;;22.50;47.60;;;;;;6087288;23;20010;-62
2022/12/25 02:32:27;;;;;;;3.72;2.00;;;22.50;47.60;;;;;;6087299;23;20053;-64
2022/12/25 02:35:17;;;;;;;2.30;1.60;;;22.50;47.60;;;;;;6087677;23;20018;-62
2022/12/25 02:37:51;;;;;;;4.13;1.83;;;22.50;47.70;;;;;;6085476;23;20019;-62
2022/12/25 02:40:55;;;;;;;3.20;1.98;;;22.40;47.70;;;;;;6087197;23;20607;-62
2022/12/25 03:06:42;;;;;;;3.65;1.92;;;22.30;47.90;;;;;;6086941;23;20026;-64
2022/12/25 03:12:26;;;;;;;2.72;1.50;;;22.30;47.90;;;;;;6085317;23;20158;-64
2022/12/25 03:17:35;;;;;;;3.05;1.52;;;22.20;47.90;;;;;;6088279;23;20026;-62
2022/12/25 03:28:15;;;;;;;2.50;1.90;;;22.20;47.90;;;;;;6087805;23;20093;-61
2022/12/25 03:31:12;;;;;;;3.67;2.10;;;22.20;48.00;;;;;;6087704;23;20085;-62
2022/12/25 04:37:55;;;;;;;1.88;1.42;;;21.80;48.10;;;;;;6087770;23;20455;-61
2022/12/25 04:40:22;;;;;;;2.38;1.58;;;21.80;48.20;;;;;;6088273;23;20060;-62
2022/12/25 04:42:51;;;;;;;3.10;1.85;;;21.80;48.20;;;;;;6085129;23;20053;-63
2022/12/25 04:45:18;;;;;;;2.33;1.90;;;21.80;48.30;;;;;;6086936;23;20018;-60
2022/12/25 04:47:43;;;;;;;2.05;1.40;;;21.80;48.30;;;;;;6088185;23;20052;-63
2022/12/25 04:50:09;;;;;;;2.28;1.65;;;21.80;48.30;;;;;;6062460;23;20018;-63
2022/12/25 04:52:37;;;;;;;2.85;1.42;;;21.80;48.30;;;;;;6085458;23;20042;-62
2022/12/25 04:55:04;;;;;;;2.58;1.70;;;21.70;48.30;;;;;;6088439;23;20069;-61
2022/12/25 04:57:30;;;;;;;3.17;1.70;;;21.70;48.30;;;;;;6088797;23;20034;-63
2022/12/25 04:59:56;;;;;;;1.77;1.60;;;21.70;48.30;;;;;;6087848;23;20014;-61
2022/12/25 05:02:22;;;;;;;3.63;2.00;;;21.70;48.30;;;;;;6086757;23;20080;-64
2022/12/25 05:04:47;;;;;;;3.85;2.20;;;21.70;48.30;;;;;;6087833;23;20064;-64
2022/12/25 05:07:13;;;;;;;3.13;1.63;;;21.70;48.40;;;;;;6087985;23;20156;-64
2022/12/25 05:09:40;;;;;;;3.35;1.70;;;21.70;48.30;;;;;;6087829;23;20014;-63
2022/12/25 05:12:07;;;;;;;3.00;1.50;;;21.60;48.30;;;;;;6085183;23;20014;-62
2022/12/25 05:14:32;;;;;;;2.42;1.58;;;21.60;48.30;;;;;;6088386;23;20061;-61
2022/12/25 05:16:58;;;;;;;2.75;1.60;;;21.60;48.30;;;;;;6087485;23;20025;-61
2022/12/25 05:19:25;;;;;;;2.40;1.70;;;21.60;48.40;;;;;;6062516;23;20078;-63
2022/12/25 05:21:51;;;;;;;3.33;1.58;;;21.60;48.40;;;;;;6085597;23;20093;-61
2022/12/25 05:24:17;;;;;;;2.15;1.50;;;21.60;48.40;;;;;;6086288;23;20383;-61
2022/12/25 05:26:43;;;;;;;3.53;1.75;;;21.60;48.80;;;;;;6061920;23;20050;-62
2022/12/25 05:29:09;;;;;;;2.63;1.58;;;21.60;48.40;;;;;;6061696;23;20018;-62
2022/12/25 05:31:34;;;;;;;3.13;1.77;;;21.60;48.40;;;;;;6088609;23;20046;-63
2022/12/25 05:34:00;;;;;;;4.07;1.95;;;21.50;48.40;;;;;;6086602;23;20938;-60
2022/12/25 05:36:26;;;;;;;3.13;1.63;;;21.60;48.40;;;;;;6085713;23;20053;-61
2022/12/25 05:38:51;;;;;;;2.97;1.60;;;21.60;48.50;;;;;;6087649;23;20384;-61
2022/12/25 05:41:17;;;;;;;4.10;1.85;;;21.50;48.40;;;;;;6062694;23;20018;-60
2022/12/25 05:43:43;;;;;;;4.43;1.80;;;21.50;48.50;;;;;;6086578;23;20082;-60
2022/12/25 05:46:10;;;;;;;4.35;1.80;;;21.50;48.50;;;;;;6087793;23;20010;-61
2022/12/25 05:48:36;;;;;;;3.90;1.73;;;21.50;48.40;;;;;;6085461;23;20018;-62
2022/12/25 05:51:07;;;;;;;2.95;1.67;;;21.50;48.50;;;;;;6087795;23;20029;-61
2022/12/25 05:53:33;;;;;;;;;;;21.50;48.50;;;;;;6088730;23;20364;-62
2022/12/25 05:56:03;;;;;;;2.70;1.40;;;21.40;48.60;;;;;;6086344;23;19956;-61
2022/12/25 05:58:30;;;;;;;2.70;1.67;;;21.40;48.70;;;;;;6086295;23;20029;-60
2022/12/25 06:00:56;;;;;;;2.63;1.38;;;21.40;48.80;;;;;;6087632;23;20022;-61
2022/12/25 06:03:23;;;;;;;2.35;1.58;;;21.40;48.70;;;;;;6085985;23;20037;-62
2022/12/25 06:05:48;;;;;;;2.00;1.42;;;21.40;48.70;;;;;;6087655;23;20074;-63
2022/12/25 06:08:14;;;;;;;2.38;1.55;;;21.40;48.60;;;;;;6086666;23;20018;-62
2022/12/25 06:10:40;;;;;;;3.08;2.03;;;21.40;48.60;;;;;;6088240;23;20060;-62
2022/12/25 06:13:05;;;;;;;2.35;1.63;;;21.40;48.70;;;;;;6085569;23;20018;-61
2022/12/25 06:15:31;;;;;;;1.98;1.45;;;21.40;48.60;;;;;;6087627;23;20077;-62
2022/12/25 06:18:00;;;;;;;2.97;1.90;;;21.40;48.70;;;;;;6061867;23;20027;-61
2022/12/25 06:20:26;;;;;;;2.28;1.60;;;21.40;48.70;;;;;;6087351;23;20146;-62
2022/12/25 06:22:51;;;;;;;2.13;1.67;;;21.40;48.80;;;;;;6087057;23;20056;-64
2022/12/25 06:25:17;;;;;;;2.65;1.40;;;21.40;48.70;;;;;;6085407;23;20018;-62
2022/12/25 06:27:43;;;;;;;2.30;1.48;;;21.30;48.70;;;;;;6085443;23;20025;-61
2022/12/25 06:30:09;;;;;;;2.63;1.58;;;21.30;48.70;;;;;;6085222;23;20022;-61
2022/12/25 06:32:35;;;;;;;1.80;1.42;;;21.30;48.80;;;;;;6087472;23;20022;-63
2022/12/25 06:35:00;;;;;;;2.80;1.60;;;21.30;48.80;;;;;;6087624;23;20010;-61
2022/12/25 06:37:26;;;;;;;2.03;1.45;;;21.30;48.80;;;;;;6086886;23;20646;-61
2022/12/25 06:39:51;;;;;;;3.00;1.75;;;21.30;48.80;;;;;;6087611;23;20026;-61
2022/12/25 06:42:17;;;;;;;3.33;1.40;;;21.30;48.80;;;;;;6087193;23;20014;-60
2022/12/25 06:44:43;;;;;;;1.83;1.23;;;21.30;48.90;;;;;;6061355;23;20010;-60
2022/12/25 06:47:09;;;;;;;1.60;1.40;;;21.30;48.90;;;;;;6086380;23;20026;-61
2022/12/25 06:49:35;;;;;;;1.70;1.17;;;21.30;48.80;;;;;;6088021;23;20128;-62
2022/12/25 06:52:00;;;;;;;2.53;1.63;;;21.30;48.90;;;;;;6086337;23;20450;-62
2022/12/25 06:54:26;;;;;;;2.03;1.27;;;21.20;48.80;;;;;;6085069;23;20029;-61
2022/12/25 06:56:52;;;;;;;1.30;1.20;;;21.30;48.90;;;;;;6087197;23;20346;-62
2022/12/25 06:59:17;;;;;;;3.35;1.65;;;21.20;48.80;;;;;;6087056;23;20029;-61
2022/12/25 07:01:56;;;;;;;1.73;1.40;;;21.20;48.80;;;;;;6087683;23;20110;-61
2022/12/25 07:04:30;;;;;;;1.85;1.13;;;21.20;48.90;;;;;;6087335;23;20025;-61
2022/12/25 07:06:57;;;;;;;1.60;1.30;;;21.20;48.90;;;;;;6086794;23;20025;-62
2022/12/25 07:09:23;;;;;;;1.17;1.05;;;21.20;48.90;;;;;;6085485;23;20010;-61
2022/12/25 07:11:48;;;;;;;1.98;1.40;;;21.20;48.90;;;;;;6087193;23;20403;-62
2022/12/25 07:14:20;;;;;;;1.70;1.00;;;21.20;48.90;;;;;;6085220;23;20750;-62
2022/12/25 07:16:46;;;;;;;1.92;1.13;;;21.20;49.00;;;;;;6087556;23;20041;-61
2022/12/25 07:19:12;;;;;;;1.75;1.40;;;21.10;49.00;;;;;;6087229;23;20470;-61
2022/12/25 07:21:37;;;;;;;2.08;1.25;;;21.10;49.00;;;;;;6086065;23;20019;-61
2022/12/25 07:24:03;;;;;;;2.90;1.40;;;21.10;49.00;;;;;;6085672;23;20022;-62
2022/12/25 07:26:29;;;;;;;1.58;1.40;;;21.10;49.00;;;;;;6060825;23;20554;-63
2022/12/25 07:28:55;;;;;;;3.42;1.17;;;21.10;49.00;;;;;;6086924;23;20134;-62
2022/12/25 07:31:21;;;;;;;3.47;1.10;;;21.10;49.10;;;;;;6086053;23;20029;-61
2022/12/25 07:33:47;;;;;;;2.55;1.40;;;21.10;49.10;;;;;;6086062;23;20022;-61
2022/12/25 07:36:14;;;;;;;2.40;1.30;;;21.10;49.10;;;;;;6085191;23;20022;-62
2022/12/25 07:38:40;;;;;;;2.22;1.02;;;21.10;49.10;;;;;;6086834;23;20022;-61
2022/12/25 07:41:11;;;;;;;2.28;1.13;;;21.10;49.10;;;;;;6062846;23;20437;-64
2022/12/25 07:43:37;;;;;;;1.27;1.13;;;21.10;49.10;;;;;;6087495;23;20030;-61
2022/12/25 07:46:03;;;;;;;1.33;1.20;;;21.10;49.20;;;;;;6088915;23;20093;-62
2022/12/25 07:48:29;;;;;;;2.45;1.25;;;21.00;49.20;;;;;;6063113;23;20109;-61
2022/12/25 07:51:01;;;;;;;2.75;1.48;;;21.00;49.20;;;;;;6087535;23;20057;-62
2022/12/25 07:53:27;;;;;;;2.05;1.25;;;21.00;49.20;;;;;;6087565;23;20284;-61
2022/12/25 07:56:09;;;;;;;2.30;1.00;;;21.00;49.20;;;;;;6086453;23;20065;-61
2022/12/25 07:58:34;;;;;;;2.80;1.25;;;21.00;49.20;;;;;;6088050;23;20018;-61
2022/12/25 08:01:12;;;;;;;1.83;1.00;;;21.00;49.20;;;;;;6088557;23;20023;-61
2022/12/25 08:03:38;;;;;;;1.17;1.08;;;21.00;50.00;;;;;;6063133;23;20072;-63
2022/12/25 08:06:06;;;;;;;1.75;1.17;;;21.00;49.20;;;;;;6085634;23;20046;-62
2022/12/25 08:08:33;;;;;;;2.13;1.02;;;21.00;49.20;;;;;;6087668;23;20062;-61
2022/12/25 08:10:59;;;;;;;2.17;1.10;;;20.90;49.20;;;;;;6085849;23;20018;-62
2022/12/25 08:13:24;;;;;;;1.92;1.25;;;20.90;49.30;;;;;;6088804;23;20018;-60
2022/12/25 08:15:56;;;;;;;3.38;1.23;;;20.90;49.40;;;;;;6088566;23;20022;-63
2022/12/25 08:18:21;;;;;;;1.65;1.20;;;20.90;49.40;;;;;;6088029;23;20049;-65
2022/12/25 08:20:47;;;;;;;3.35;1.23;;;20.80;49.40;;;;;;6060106;23;20407;-61
2022/12/25 08:23:13;;;;;;;3.75;1.33;;;20.90;49.70;;;;;;6077618;23;20455;-62
2022/12/25 08:25:38;;;;;;;3.60;1.30;;;21.10;49.90;;;;;;6088740;23;20455;-61
2022/12/25 08:28:04;;;;;;;2.30;1.50;;;21.70;49.00;;;;;;6083731;23;20018;-64
2022/12/25 08:30:29;;;;;;;2.17;1.23;;;22.40;47.50;;;;;;6087535;23;20018;-63
2022/12/25 08:32:55;;;;;;;1.00;0.90;;;23.20;46.20;;;;;;6085791;23;20347;-61
2022/12/25 08:35:21;;;;;;;4.18;1.20;;;23.80;45.10;;;;;;6086020;23;20077;-63
2022/12/25 08:37:46;;;;;;;2.05;1.30;;;24.10;44.50;;;;;;6088614;23;20033;-60
2022/12/25 08:40:12;;;;;;;3.47;1.58;;;24.20;44.30;;;;;;6088213;23;20049;-61
2022/12/25 08:42:38;;;;;;;2.35;1.48;;;24.10;44.40;;;;;;6085977;23;20455;-61
2022/12/25 08:45:04;;;;;;;1.92;1.33;;;24.00;44.70;;;;;;6088800;23;20718;-61
2022/12/25 08:47:30;;;;;;;1.05;0.95;;;24.00;44.80;;;;;;6087878;23;20018;-61
2022/12/25 08:49:55;;;;;;;1.77;1.33;;;23.90;45.00;;;;;;6089028;23;20029;-63
2022/12/25 08:52:21;;;;;;;1.40;1.17;;;23.90;45.10;;;;;;6086484;23;20077;-62
2022/12/25 08:54:46;;;;;;;2.95;1.23;;;23.80;45.40;;;;;;6088964;23;20014;-61
2022/12/25 08:57:12;;;;;;;1.27;1.17;;;23.50;45.70;;;;;;6080999;23;20711;-64
2022/12/25 08:59:38;;;;;;;3.65;1.38;;;23.40;46.20;;;;;;6065088;23;20018;-62
2022/12/25 09:02:04;;;;;;;3.05;1.30;;;23.30;46.50;;;;;;6087884;23;20029;-61
2022/12/25 09:04:30;;;;;;;2.97;1.65;;;23.20;46.70;;;;;;6086192;23;20011;-60
2022/12/25 09:06:55;;;;;;;4.65;1.17;;;23.10;47.70;;;;;;6088463;23;20387;-61
2022/12/25 09:09:26;;;;;;;2.08;0.93;;;23.10;47.10;;;;;;6088387;23;20094;-62
2022/12/25 09:11:52;;;;;;;3.25;1.20;;;23.10;47.30;;;;;;6086184;23;20061;-65
2022/12/25 09:14:17;;;;;;;2.03;1.15;;;23.10;47.40;;;;;;6087847;23;20320;-64
2022/12/25 09:16:43;;;;;;;2.15;1.40;;;23.00;47.40;;;;;;6087627;23;20029;-64
2022/12/25 09:19:09;;;;;;;1.20;0.95;;;23.00;47.50;;;;;;6085692;23;20045;-63
2022/12/25 09:21:35;;;;;;;1.27;0.88;;;23.00;47.50;;;;;;6087957;23;20093;-62
2022/12/25 09:24:03;;;;;;;1.25;1.05;;;23.00;47.60;;;;;;6062290;23;20022;-62
2022/12/25 09:26:28;;;;;;;3.08;1.30;;;23.00;47.70;;;;;;6088220;23;20015;-62
2022/12/25 09:28:54;;;;;;;3.97;1.17;;;23.00;47.70;;;;;;6086550;23;20528;-64
2022/12/25 09:31:21;;;;;;;2.85;1.13;;;23.00;47.70;;;;;;6085181;23;20444;-65
2022/12/25 09:33:48;;;;;;;3.35;1.45;;;23.10;47.80;;;;;;6086945;23;20025;-62
2022/12/25 09:36:13;;;;;;;2.10;0.95;;;23.00;47.80;;;;;;6086821;23;20025;-62
2022/12/25 09:38:39;;;;;;;1.95;1.15;;;23.00;48.70;;;;;;6088893;23;20018;-63
2022/12/25 09:41:23;;;;;;;6.22;1.40;;;23.00;48.20;;;;;;6086675;23;20077;-61
2022/12/25 09:44:11;;;;;;;7.40;1.80;;;23.00;48.30;;;;;;6083690;23;20169;-65
2022/12/25 09:46:43;;;;;;;6.80;2.17;;;23.00;48.60;;;;;;6084023;23;20033;-61
2022/12/25 09:49:20;;;;;;;8.95;2.55;;;23.00;49.10;;;;;;6085416;23;20085;-63
2022/12/25 09:51:52;;;;;;;5.10;2.15;;;23.00;49.60;;;;;;6086442;23;20015;-61
2022/12/25 09:54:27;;;;;;;5.28;2.03;;;23.00;49.80;;;;;;6061661;23;20121;-61
2022/12/25 09:56:53;;;;;;;7.75;2.45;;;23.10;50.00;;;;;;6084028;23;20347;-61
2022/12/25 09:59:28;;;;;;;5.35;1.95;;;23.10;50.10;;;;;;6079860;23;20029;-61
2022/12/25 10:02:00;;;;;;;4.05;1.90;;;23.10;50.10;;;;;;6086834;23;20018;-61
2022/12/25 10:04:49;;;;;;;4.28;2.30;;;23.10;50.20;;;;;;6084355;23;20019;-61
2022/12/25 10:07:28;;;;;;;9.80;2.63;;;23.20;50.40;;;;;;6085242;23;20014;-62
2022/12/25 10:10:11;;;;;;;4.43;1.80;;;23.10;50.30;;;;;;6086285;23;20010;-63
2022/12/25 10:12:56;;;;;;;4.03;1.80;;;23.20;50.30;;;;;;6084310;23;20026;-63
2022/12/25 10:15:45;;;;;;;7.25;2.15;;;23.20;50.30;;;;;;6085877;23;20388;-62
2022/12/25 10:18:50;;;;;;;6.97;2.20;;;23.20;50.50;;;;;;6082307;23;20018;-62
2022/12/25 10:21:17;;;;;;;6.38;1.83;;;23.20;50.70;;;;;;6052941;23;20026;-62
2022/12/25 10:23:53;;;;;;;6.50;2.50;;;23.20;50.70;;;;;;6084226;23;20113;-63
2022/12/25 10:26:23;;;;;;;6.57;2.17;;;23.20;50.60;;;;;;6084373;23;20017;-63
2022/12/25 10:29:08;;;;;;;5.15;2.10;;;23.20;50.50;;;;;;6058929;23;20018;-62
2022/12/25 10:31:35;;;;;;;6.95;2.00;;;23.10;50.30;;;;;;6060785;23;20018;-62
2022/12/25 10:34:02;;;;;;;3.53;1.90;;;23.10;50.30;;;;;;6084700;23;20010;-62
2022/12/25 10:36:29;;;;;;;6.30;2.10;;;23.10;50.20;;;;;;6085807;23;20022;-62
2022/12/25 10:38:55;;;;;;;5.47;1.90;;;23.10;50.20;;;;;;6087294;23;20024;-62
2022/12/25 10:41:58;;;;;;;4.93;1.70;;;23.10;50.30;;;;;;6084616;23;20066;-63
2022/12/25 10:44:24;;;;;;;6.57;2.17;;;23.20;50.40;;;;;;6086769;23;20288;-63
2022/12/25 10:46:56;;;;;;;4.35;1.65;;;23.10;50.70;;;;;;6084015;23;20018;-62
2022/12/25 10:49:24;;;;;;;4.03;1.85;;;23.10;51.00;;;;;;6086576;23;20006;-63
2022/12/25 10:51:50;;;;;;;3.38;1.45;;;23.10;51.30;;;;;;6060807;23;20131;-61
2022/12/25 10:54:28;;;;;;;4.18;1.77;;;23.10;51.60;;;;;;6085335;23;20007;-62
2022/12/25 10:57:02;;;;;;;4.38;2.00;;;23.20;52.10;;;;;;6085310;23;20018;-63
2022/12/25 10:59:50;;;;;;;9.48;2.33;;;23.20;52.50;;;;;;6085922;23;20018;-64
2022/12/25 11:02:35;;;;;;;2.95;1.70;;;23.20;52.80;;;;;;6071183;23;20016;-62
2022/12/25 11:05:08;;;;;;;4.00;2.10;;;23.20;52.80;;;;;;6085288;23;20070;-62
2022/12/25 11:07:45;;;;;;;4.10;1.80;;;23.20;52.80;;;;;;6084958;23;20015;-61
2022/12/25 11:10:31;;;;;;;5.20;2.10;;;23.20;53.00;;;;;;6084006;23;20014;-63
2022/12/25 11:12:58;;;;;;;6.38;2.30;;;23.20;53.30;;;;;;6084826;23;20018;-62
2022/12/25 11:15:33;;;;;;;5.63;2.13;;;23.20;53.30;;;;;;6061341;23;20068;-61
2022/12/25 11:17:58;;;;;;;4.13;1.88;;;23.20;53.30;;;;;;6088510;23;20018;-63
2022/12/25 11:20:25;;;;;;;7.63;2.42;;;23.20;53.30;;;;;;6085434;23;20810;-63
2022/12/25 11:22:51;;;;;;;5.75;2.20;;;23.20;53.10;;;;;;6085747;23;20030;-62
2022/12/25 11:25:25;;;;;;;5.88;2.05;;;23.20;53.00;;;;;;6088174;23;20018;-62
2022/12/25 11:28:03;;;;;;;4.30;2.10;;;23.20;53.00;;;;;;6087393;23;20025;-61
2022/12/25 11:30:31;;;;;;;4.60;2.05;;;23.20;52.80;;;;;;6062911;23;20460;-61
2022/12/25 11:33:02;;;;;;;4.32;1.77;;;23.20;52.70;;;;;;6087600;23;20043;-62
2022/12/25 11:35:31;;;;;;;3.25;1.83;;;23.20;52.70;;;;;;6087290;23;20019;-63
2022/12/25 11:37:57;;;;;;;4.10;1.95;;;23.20;52.50;;;;;;6061358;23;20023;-64
2022/12/25 11:40:33;;;;;;;3.55;1.70;;;23.20;52.40;;;;;;6087281;23;20041;-60
2022/12/25 11:43:40;;;;;;;4.93;1.85;;;23.20;52.40;;;;;;6084803;23;20030;-61
2022/12/25 11:46:29;;;;;;;4.15;1.60;;;23.20;52.30;;;;;;6050881;23;20018;-62
2022/12/25 11:49:04;;;;;;;3.55;1.73;;;23.20;52.20;;;;;;6088830;23;20037;-62
2022/12/25 11:51:35;;;;;;;2.72;1.55;;;23.20;52.10;;;;;;6088288;23;20469;-61
2022/12/25 11:54:13;;;;;;;3.80;1.73;;;23.20;52.10;;;;;;6087845;23;20010;-60
2022/12/25 11:56:39;;;;;;;4.10;1.70;;;23.20;52.10;;;;;;6087191;23;20351;-61
2022/12/25 11:59:30;;;;;;;4.10;1.85;;;23.20;52.20;;;;;;6088741;23;20014;-61
2022/12/25 12:02:00;;;;;;;3.20;1.73;;;23.20;52.20;;;;;;6088865;23;20327;-61
2022/12/25 12:04:35;;;;;;;2.25;1.70;;;23.20;52.20;;;;;;6088962;23;20022;-61
2022/12/25 12:07:22;;;;;;;3.28;1.40;;;23.20;52.30;;;;;;6088428;23;20014;-61
2022/12/25 12:09:50;;;;;;;3.67;1.58;;;23.20;52.30;;;;;;6089370;23;20025;-61
2022/12/25 12:12:31;;;;;;;4.93;2.03;;;23.20;52.30;;;;;;6087347;23;20454;-61
2022/12/25 12:15:16;;;;;;;5.47;1.65;;;23.20;52.20;;;;;;6084232;23;20026;-61
2022/12/25 12:17:42;;;;;;;7.70;1.88;;;23.20;52.20;;;;;;6085946;23;20066;-61
2022/12/25 12:20:32;;;;;;;4.68;1.70;;;23.20;52.30;;;;;;6075044;23;20354;-62
2022/12/25 12:23:00;;;;;;;5.25;1.60;;;23.20;52.30;;;;;;6084416;23;20085;-61
2022/12/25 12:25:27;;;;;;;4.22;1.88;;;23.20;52.30;;;;;;6085393;23;20070;-60
2022/12/25 12:27:56;;;;;;;3.13;1.70;;;23.20;52.30;;;;;;6058918;23;20673;-60
2022/12/25 12:30:31;;;;;;;4.72;1.88;;;23.20;52.10;;;;;;6087095;23;20011;-61
2022/12/25 12:33:00;;;;;;;3.47;1.58;;;23.20;52.00;;;;;;6086251;23;20015;-60
2022/12/25 12:35:32;;;;;;;3.65;1.60;;;23.20;51.90;;;;;;6085711;23;20122;-61
2022/12/25 12:38:02;;;;;;;3.33;1.67;;;23.20;51.90;;;;;;6084069;23;20467;-61
2022/12/25 12:40:35;;;;;;;3.50;1.35;;;23.20;51.70;;;;;;6087203;23;20522;-61
2022/12/25 12:43:01;;;;;;;6.53;2.03;;;23.30;51.80;;;;;;6085623;23;20029;-61
2022/12/25 12:45:33;;;;;;;2.30;1.40;;;23.30;51.90;;;;;;6086486;23;20470;-61
2022/12/25 12:47:59;;;;;;;3.95;1.52;;;23.30;52.10;;;;;;6087282;23;20347;-61
2022/12/25 12:50:28;;;;;;;4.95;1.55;;;23.30;52.30;;;;;;6087397;23;20018;-61
2022/12/25 12:52:54;;;;;;;4.13;1.70;;;23.30;52.30;;;;;;6085423;23;20019;-61
2022/12/25 12:55:33;;;;;;;1.92;1.30;;;23.30;52.20;;;;;;6085257;23;20478;-62
2022/12/25 12:58:02;;;;;;;3.55;1.65;;;23.30;52.10;;;;;;6061963;23;20481;-62
2022/12/25 13:00:43;;;;;;;4.25;1.70;;;23.20;52.10;;;;;;6087201;23;20136;-62
2022/12/25 13:03:35;;;;;;;4.75;1.95;;;23.30;52.40;;;;;;6063587;23;20451;-63
2022/12/25 13:06:29;;;;;;;5.00;2.10;;;23.30;52.30;;;;;;6063213;23;20438;-64
2022/12/25 13:09:17;;;;;;;4.22;1.80;;;23.30;52.10;;;;;;6087750;23;20022;-64
2022/12/25 13:11:43;;;;;;;4.18;1.70;;;23.30;52.30;;;;;;6086564;23;20057;-63
2022/12/25 13:14:21;;;;;;;2.80;1.73;;;23.30;52.30;;;;;;6064484;23;20021;-64
2022/12/25 13:16:53;;;;;;;4.20;1.85;;;23.30;52.30;;;;;;6074704;23;20715;-65
2022/12/25 13:19:27;;;;;;;4.35;1.85;;;23.30;52.30;;;;;;6080729;23;20021;-63
2022/12/25 13:21:56;;;;;;;5.25;1.95;;;23.30;52.30;;;;;;6049704;23;20029;-66
2022/12/25 13:24:27;;;;;;;5.23;1.97;;;23.30;52.40;;;;;;6059261;23;20312;-63
2022/12/25 13:26:55;;;;;;;3.60;1.70;;;23.30;52.40;;;;;;6055879;23;21330;-64
2022/12/25 13:29:32;;;;;;;4.88;1.88;;;23.30;52.40;;;;;;6085141;23;20093;-65
2022/12/25 13:32:00;;;;;;;2.58;1.90;;;23.30;52.20;;;;;;6060699;23;20014;-64
2022/12/25 13:34:34;;;;;;;3.38;2.20;;;23.30;52.30;;;;;;6060049;23;20396;-64
2022/12/25 13:37:15;;;;;;;3.78;1.80;;;23.30;52.10;;;;;;6083060;23;20081;-63
2022/12/25 13:39:56;;;;;;;3.15;1.75;;;23.30;52.10;;;;;;6060649;23;20375;-64
2022/12/25 13:42:31;;;;;;;5.10;2.20;;;23.30;52.10;;;;;;6085517;23;20029;-65
2022/12/25 13:45:21;;;;;;;4.25;2.30;;;23.30;52.10;;;;;;6058403;23;20033;-64
2022/12/25 13:47:50;;;;;;;3.80;2.63;;;23.30;52.00;;;;;;6059905;23;20471;-64
2022/12/25 13:50:33;;;;;;;3.88;2.47;;;23.30;52.10;;;;;;6058897;23;20843;-65
2022/12/25 13:53:12;;;;;;;4.25;2.50;;;23.30;52.10;;;;;;6075476;23;20568;-64
2022/12/25 13:55:42;;;;;;;3.75;2.05;;;23.30;52.00;;;;;;6060822;23;20073;-65
2022/12/25 13:58:23;;;;;;;4.40;2.45;;;23.30;51.90;;;;;;6060730;23;20022;-65
2022/12/25 14:00:57;;;;;;;2.30;1.63;;;23.30;51.90;;;;;;6086339;23;20025;-64
2022/12/25 14:03:36;;;;;;;6.18;2.33;;;23.30;52.00;;;;;;6060244;23;20021;-66
2022/12/25 14:06:15;;;;;;;5.47;2.25;;;23.30;51.90;;;;;;6061285;23;20014;-63
2022/12/25 14:08:48;;;;;;;3.05;1.90;;;23.30;51.90;;;;;;6061018;23;20029;-63
2022/12/25 14:11:19;;;;;;;4.70;2.22;;;23.30;52.00;;;;;;6061191;23;20815;-64
2022/12/25 14:13:52;;;;;;;6.15;2.10;;;23.30;52.00;;;;;;6085311;23;20350;-63
2022/12/25 14:16:21;;;;;;;3.78;2.17;;;23.30;52.00;;;;;;6061080;23;20018;-62
2022/12/25 14:18:57;;;;;;;3.22;1.85;;;23.30;52.00;;;;;;6060520;23;20089;-64
2022/12/25 14:21:27;;;;;;;3.72;2.28;;;23.30;52.30;;;;;;6059829;23;20026;-62
2022/12/25 14:23:57;;;;;;;3.70;2.00;;;23.30;52.50;;;;;;6060609;23;20022;-64
2022/12/25 14:26:32;;;;;;;2.60;2.25;;;23.30;52.60;;;;;;6082796;23;20021;-63
2022/12/25 14:29:07;;;;;;;5.28;2.28;;;23.30;53.10;;;;;;6082573;23;20166;-64
2022/12/25 14:31:38;;;;;;;6.03;2.08;;;23.30;53.50;;;;;;6056943;23;20500;-64
2022/12/25 14:34:09;;;;;;;;;;;23.30;53.80;;;;;;6059504;23;20094;-64
2022/12/25 14:36:36;;;;;;;;;;;23.30;54.30;;;;;;6085062;23;19921;-64
2022/12/25 14:39:06;;;;;;;4.70;2.42;;;23.30;54.70;;;;;;6060266;23;19940;-65
2022/12/25 14:41:37;;;;;;;4.10;2.10;;;23.30;54.20;;;;;;6051394;23;20049;-64
2022/12/25 14:44:33;;;;;;;3.83;1.85;;;23.30;54.40;;;;;;6082415;23;20015;-63
2022/12/25 14:47:14;;;;;;;4.03;2.17;;;23.30;54.80;;;;;;6081628;23;20033;-63
2022/12/25 14:49:41;;;;;;;4.22;1.90;;;23.30;54.90;;;;;;6080037;23;20018;-64